Flight Track Log - Related Links

Times and Time Zones

All times are in EDT time to prevent confusion due to time zone crossing. See the CCA4121 flight status page for this flight to view local times or setup timezone preferences in your user account.

Time Position Orientation Groundspeed Altitude Reporting Facility
EDT Latitude Longitude Course Direction KTS MPH feet Rate Location/Type
Wed 07:46:00 AM 34.0452 105.5013 51° Northeast  Level Estimated
Wed 07:47:00 AM 34.1039 105.5935 52° Northeast  Level Estimated
Wed 07:48:00 AM 34.1625 105.6859 52° Northeast  Level Estimated
Wed 07:49:00 AM 34.2211 105.7784 53° Northeast  Level Estimated
Wed 07:50:00 AM 34.2796 105.8710 53° Northeast  Level Estimated
Wed 07:51:00 AM 34.3380 105.9638 53° Northeast  Level Estimated
Wed 07:52:00 AM 34.3964 106.0566 53° Northeast  Level Estimated
Wed 07:53:00 AM 34.4547 106.1496 53° Northeast  Level Estimated
Wed 07:54:00 AM 34.5129 106.2428 53° Northeast  Level Estimated
Wed 07:55:00 AM 34.5710 106.3361 53° Northeast  Level Estimated
Wed 07:56:00 AM 34.6291 106.4295 53° Northeast  Level Estimated
Wed 07:57:00 AM 34.6871 106.5230 53° Northeast  Level Estimated
Wed 07:58:00 AM 34.7450 106.6166 53° Northeast  Level Estimated
Wed 07:59:00 AM 34.8029 106.7104 53° Northeast  Level Estimated
Wed 08:00:00 AM 34.8606 106.8044 53° Northeast  Level Estimated
Wed 08:01:00 AM 34.9184 106.8984 53° Northeast  Level Estimated
Wed 08:02:00 AM 34.9760 106.9926 53° Northeast  Level Estimated
Wed 08:03:00 AM 35.0336 107.0869 53° Northeast  Level Estimated
Wed 08:04:00 AM 35.0911 107.1814 53° Northeast  Level Estimated
Wed 08:05:00 AM 35.1485 107.2759 53° Northeast  Level Estimated
Wed 08:06:00 AM 35.2058 107.3707 53° Northeast  Level Estimated
Wed 08:07:00 AM 35.2631 107.4655 53° Northeast  Level Estimated
Wed 08:08:00 AM 35.3203 107.5605 54° Northeast  Level Estimated
Wed 08:09:00 AM 35.3774 107.6556 54° Northeast  Level Estimated
Wed 08:10:00 AM 35.4345 107.7509 54° Northeast  Level Estimated
Wed 08:11:00 AM 35.4915 107.8463 54° Northeast  Level Estimated
Wed 08:12:00 AM 35.5484 107.9418 54° Northeast  Level Estimated
Wed 08:13:00 AM 35.6052 108.0375 54° Northeast  Level Estimated
Wed 08:14:00 AM 35.6619 108.1333 54° Northeast  Level Estimated
Wed 08:15:00 AM 35.7186 108.2292 54° Northeast  Level Estimated
Wed 08:16:00 AM 35.7752 108.3253 54° Northeast  Level Estimated
Wed 08:17:00 AM 35.8317 108.4215 54° Northeast  Level Estimated
Wed 08:18:00 AM 35.8882 108.5178 54° Northeast  Level Estimated
Wed 08:19:00 AM 35.9445 108.6143 54° Northeast  Level Estimated
Wed 08:20:00 AM 36.0008 108.7109 54° Northeast  Level Estimated
Wed 08:21:00 AM 36.0570 108.8077 54° Northeast  Level Estimated
Wed 08:22:00 AM 36.1132 108.9046 54° Northeast  Level Estimated
Wed 08:23:00 AM 36.1692 109.0016 54° Northeast  Level Estimated
Wed 08:24:00 AM 36.2252 109.0988 54° Northeast  Level Estimated
Wed 08:25:00 AM 36.2811 109.1961 55° Northeast  Level Estimated
Wed 08:26:00 AM 36.3369 109.2935 55° Northeast  Level Estimated
Wed 08:27:00 AM 36.3927 109.3911 55° Northeast  Level Estimated
Wed 08:28:00 AM 36.4483 109.4889 55° Northeast  Level Estimated
Wed 08:29:00 AM 36.5039 109.5867 55° Northeast  Level Estimated
Wed 08:30:00 AM 36.5594 109.6847 55° Northeast  Level Estimated
Wed 08:31:00 AM 36.6148 109.7829 55° Northeast  Level Estimated
Wed 08:32:00 AM 36.6702 109.8812 55° Northeast  Level Estimated
Wed 08:33:00 AM 36.7254 109.9796 55° Northeast  Level Estimated
Wed 08:34:00 AM 36.7806 110.0782 55° Northeast  Level Estimated
Wed 08:35:00 AM 36.8357 110.1769 55° Northeast  Level Estimated
Wed 08:36:00 AM 36.8907 110.2758 55° Northeast  Level Estimated
Wed 08:37:00 AM 36.9457 110.3748 55° Northeast  Level Estimated
Wed 08:38:00 AM 37.0005 110.4739 55° Northeast  Level Estimated
Wed 08:39:00 AM 37.0553 110.5732 55° Northeast  Level Estimated
Wed 08:40:00 AM 37.1100 110.6727 55° Northeast  Level Estimated
Wed 08:41:00 AM 37.1646 110.7722 55° Northeast  Level Estimated
Wed 08:42:00 AM 37.2191 110.8719 56° Northeast  Level Estimated
Wed 08:43:00 AM 37.2735 110.9718 56° Northeast  Level Estimated
Wed 08:44:00 AM 37.3279 111.0718 56° Northeast  Level Estimated
Wed 08:45:00 AM 37.3822 111.1720 56° Northeast  Level Estimated
Wed 08:46:00 AM 37.4363 111.2723 56° Northeast  Level Estimated
Wed 08:47:00 AM 37.4904 111.3727 56° Northeast  Level Estimated
Wed 08:48:00 AM 37.5444 111.4733 56° Northeast  Level Estimated
Wed 08:49:00 AM 37.5984 111.5740 56° Northeast  Level Estimated
Wed 08:50:00 AM 37.6522 111.6749 56° Northeast  Level Estimated
Wed 08:51:00 AM 37.7060 111.7759 56° Northeast  Level Estimated
Wed 08:52:00 AM 37.7597 111.8771 56° Northeast  Level Estimated
Wed 08:53:00 AM 37.8132 111.9784 56° Northeast  Level Estimated
Wed 08:54:00 AM 37.8667 112.0799 56° Northeast  Level Estimated
Wed 08:55:00 AM 37.9201 112.1815 56° Northeast  Level Estimated
Wed 08:56:00 AM 37.9735 112.2833 56° Northeast  Level Estimated
Wed 08:57:00 AM 38.0267 112.3852 56° Northeast  Level Estimated
Wed 08:58:00 AM 38.0798 112.4872 56° Northeast  Level Estimated
Wed 08:59:00 AM 38.1329 112.5894 57° Northeast  Level Estimated
Wed 09:00:00 AM 38.1859 112.6918 57° Northeast  Level Estimated
Wed 09:01:00 AM 38.2388 112.7943 57° Northeast  Level Estimated
Wed 09:01:03 AM 38.2350 114.5940 57° Northeast 485 558 26,300  Level FlightAware
Wed 09:01:30 AM 38.2650 114.6640 61° Northeast 483 556 25,800 -1,015 Descending FlightAware
Wed 09:02:08 AM 38.3070 114.7530 59° Northeast 481 554 25,200 -560 Descending FlightAware
Wed 09:02:45 AM 38.3460 114.8310 57° Northeast 478 550 25,100 -493 Descending FlightAware
Wed 09:03:21 AM 38.3960 114.9270 56° Northeast 475 547 24,600 -400 Descending FlightAware
Wed 09:04:00 AM 38.4430 115.0190 57° Northeast 476 548 24,600 -583 Level FlightAware
Wed 09:04:33 AM 38.4810 115.0960 58° Northeast 475 547 23,900 -1,658 Descending FlightAware
Wed 09:05:16 AM 38.5330 115.1980 57° Northeast 469 540 22,500 -2,000 Descending FlightAware
Wed 09:05:54 AM 38.5770 115.2870 58° Northeast 462 532 21,200 -1,357 Descending FlightAware
Wed 09:06:40 AM 38.6290 115.3910 57° Northeast 452 520 20,600 -837 Descending FlightAware
Wed 09:07:20 AM 38.6720 115.4780 58° Northeast 444 511 20,000 -876 Descending FlightAware
Wed 09:08:09 AM 38.7270 115.5890 58° Northeast 438 504 19,300 -848 Descending FlightAware
Wed 09:08:52 AM 38.7740 115.6830 57° Northeast 437 503 18,700 -474 Descending FlightAware
Wed 09:09:25 AM 38.8080 115.7540 58° Northeast 439 505 18,700 -583 Level FlightAware
Wed 09:10:04 AM 38.8510 115.8400 57° Northeast 432 497 18,000 -1,012 Descending FlightAware
Wed 09:10:48 AM 38.8960 115.9330 58° Northeast 417 480 17,300 -1,000 Descending FlightAware
Wed 09:11:04 AM 38.9130 115.9670 57° Northeast 412 474 17,000 -986 Descending FlightAware
Wed 09:12:01 AM 38.9700 116.0830 58° Northeast 408 470 16,100 -989 Descending FlightAware
Wed 09:12:35 AM 39.0050 116.1560 58° Northeast 405 466 15,500 -1,026 Descending FlightAware
Wed 09:13:17 AM 39.0460 116.2390 58° Northeast 395 455 14,800 -973 Descending FlightAware
Wed 09:13:49 AM 39.0770 116.3040 58° Northeast 392 451 14,300 -706 Descending FlightAware
Wed 09:14:42 AM 39.1340 116.3930 50° Northeast 364 419 13,800 -742 Descending FlightAware
Wed 09:15:18 AM 39.1910 116.4090 12° North 337 388 13,200 -1,254 Descending FlightAware
Wed 09:15:49 AM 39.2400 116.4110 North 330 380 12,400 -1,541 Descending FlightAware
Wed 09:16:32 AM 39.3030 116.4150 North 308 354 11,300 -1,435 Descending FlightAware
Wed 09:17:21 AM 39.3700 116.4200 North 287 330 10,200 -1,121 Descending FlightAware
Wed 09:18:03 AM 39.4150 116.4600 34° Northeast 283 326 9,600 -1,250 Descending FlightAware
Wed 09:18:33 AM 39.4440 116.4940 42° Northeast 285 328 8,700 -1,784 Descending FlightAware
Wed 09:19:17 AM 39.4900 116.5410 38° Northeast 281 323 7,400 -1,737 Descending FlightAware
Wed 09:19:49 AM 39.5260 116.5670 29° Northeast 278 320 6,500 -1,271 Descending FlightAware
Wed 09:20:42 AM 39.5850 116.6040 26° Northeast 268 308 5,600 -1,011 Descending FlightAware
Wed 09:21:18 AM 39.6250 116.6320 28° Northeast 263 303 5,000 -1,013 Descending FlightAware
Wed 09:21:59 AM 39.6690 116.6630 28° Northeast 256 295 4,300 -776 Descending FlightAware
Wed 09:22:43 AM 39.7160 116.6710 North 215 247 3,900 -537 Descending FlightAware
Wed 09:23:06 AM 39.7370 116.6680 354° North 204 235 3,700 -387 Descending FlightAware
Wed 09:23:45 AM 39.7700 116.6630 353° North 170 196 3,500 -414 Descending FlightAware
Wed 09:24:33 AM 39.8070 116.6570 353° North 164 189 3,100 -457 Descending FlightAware
Wed 09:25:17 AM 39.8400 116.6520 353° North 173 199 2,800 -375 Descending FlightAware
Wed 09:25:37 AM 39.8560 116.6490 352° North 174 200 2,700 -133 Descending FlightAware
Wed 09:26:02 AM 39.8730 116.6470 355° North 174 200 2,700 -107 Level FlightAware
Wed 09:27:29 AM 39.9260 116.6380 353° North 129 148 2,500 -350 Descending FlightAware
Wed 09:28:19 AM 39.9550 116.6340 354° North 122 140 1,900 -468 Descending FlightAware
Wed 09:28:46 AM 39.9680 116.6320 353° North 122 140 1,900 -692 Level FlightAware
Wed 09:29:37 AM 39.9970 116.6270 352° North 115 132 1,000 -692 Descending FlightAware
Wed 09:30:04 AM 40.0090 116.6250 353° North 115 132 1,000  Level FlightAware

Login

Don't have an account? Register now (free) for customized features, flight alerts, and more!